sensor_id;sensor_type;location;lat;lon;timestamp;P1;durP1;ratioP1;P2;durP2;ratioP2
43706;SDS011;61348;53.392;-6.248;2023-03-09T00:01:45;16.77;;;8.40;;
43706;SDS011;61348;53.392;-6.248;2023-03-09T00:04:13;16.23;;;8.77;;
43706;SDS011;61348;53.392;-6.248;2023-03-09T00:06:42;18.15;;;9.43;;
43706;SDS011;61348;53.392;-6.248;2023-03-09T00:09:10;20.33;;;9.55;;
43706;SDS011;61348;53.392;-6.248;2023-03-09T00:11:41;19.10;;;9.65;;
43706;SDS011;61348;53.392;-6.248;2023-03-09T00:14:13;21.88;;;9.73;;
43706;SDS011;61348;53.392;-6.248;2023-03-09T00:16:42;25.98;;;10.35;;
43706;SDS011;61348;53.392;-6.248;2023-03-09T00:19:09;17.67;;;8.13;;
43706;SDS011;61348;53.392;-6.248;2023-03-09T00:21:36;22.45;;;8.35;;
43706;SDS011;61348;53.392;-6.248;2023-03-09T00:24:16;11.27;;;7.07;;
43706;SDS011;61348;53.392;-6.248;2023-03-09T00:26:51;12.30;;;6.72;;
43706;SDS011;61348;53.392;-6.248;2023-03-09T00:29:23;13.65;;;7.05;;
43706;SDS011;61348;53.392;-6.248;2023-03-09T00:31:51;8.30;;;4.97;;
43706;SDS011;61348;53.392;-6.248;2023-03-09T00:34:18;11.43;;;5.20;;
43706;SDS011;61348;53.392;-6.248;2023-03-09T00:36:46;11.52;;;5.88;;
43706;SDS011;61348;53.392;-6.248;2023-03-09T00:39:14;11.60;;;6.53;;
43706;SDS011;61348;53.392;-6.248;2023-03-09T00:41:42;14.32;;;6.13;;
43706;SDS011;61348;53.392;-6.248;2023-03-09T00:44:09;12.40;;;7.80;;
43706;SDS011;61348;53.392;-6.248;2023-03-09T00:46:37;13.90;;;7.78;;
43706;SDS011;61348;53.392;-6.248;2023-03-09T00:49:04;12.85;;;6.65;;
43706;SDS011;61348;53.392;-6.248;2023-03-09T00:51:33;14.55;;;7.72;;
43706;SDS011;61348;53.392;-6.248;2023-03-09T00:54:03;16.98;;;7.57;;
43706;SDS011;61348;53.392;-6.248;2023-03-09T00:56:30;15.75;;;6.82;;
43706;SDS011;61348;53.392;-6.248;2023-03-09T00:58:57;15.57;;;8.48;;
43706;SDS011;61348;53.392;-6.248;2023-03-09T01:01:24;13.00;;;7.72;;
43706;SDS011;61348;53.392;-6.248;2023-03-09T01:03:52;13.18;;;7.38;;
43706;SDS011;61348;53.392;-6.248;2023-03-09T01:06:21;17.27;;;8.68;;
43706;SDS011;61348;53.392;-6.248;2023-03-09T01:08:49;19.35;;;10.27;;
43706;SDS011;61348;53.392;-6.248;2023-03-09T01:11:16;23.63;;;9.05;;
43706;SDS011;61348;53.392;-6.248;2023-03-09T01:13:44;16.33;;;8.18;;
43706;SDS011;61348;53.392;-6.248;2023-03-09T01:16:13;16.13;;;9.25;;
43706;SDS011;61348;53.392;-6.248;2023-03-09T01:18:40;14.32;;;8.18;;
43706;SDS011;61348;53.392;-6.248;2023-03-09T01:21:07;15.20;;;8.32;;
43706;SDS011;61348;53.392;-6.248;2023-03-09T01:23:38;17.95;;;7.78;;
43706;SDS011;61348;53.392;-6.248;2023-03-09T01:26:06;17.70;;;8.13;;
43706;SDS011;61348;53.392;-6.248;2023-03-09T01:28:34;23.05;;;7.90;;
43706;SDS011;61348;53.392;-6.248;2023-03-09T01:31:05;21.15;;;9.20;;
43706;SDS011;61348;53.392;-6.248;2023-03-09T01:33:33;15.27;;;7.63;;
43706;SDS011;61348;53.392;-6.248;2023-03-09T01:36:02;17.10;;;8.88;;
43706;SDS011;61348;53.392;-6.248;2023-03-09T01:38:30;15.35;;;7.90;;
43706;SDS011;61348;53.392;-6.248;2023-03-09T01:40:57;16.77;;;7.45;;
43706;SDS011;61348;53.392;-6.248;2023-03-09T01:46:23;24.23;;;7.82;;
43706;SDS011;61348;53.392;-6.248;2023-03-09T01:54:38;12.25;;;7.25;;
43706;SDS011;61348;53.392;-6.248;2023-03-09T01:57:26;16.52;;;7.78;;
43706;SDS011;61348;53.392;-6.248;2023-03-09T02:02:39;11.38;;;7.00;;
43706;SDS011;61348;53.392;-6.248;2023-03-09T02:05:15;9.82;;;6.28;;
43706;SDS011;61348;53.392;-6.248;2023-03-09T02:07:46;13.63;;;6.60;;
43706;SDS011;61348;53.392;-6.248;2023-03-09T02:10:25;11.35;;;6.43;;
43706;SDS011;61348;53.392;-6.248;2023-03-09T02:13:00;9.93;;;6.53;;
43706;SDS011;61348;53.392;-6.248;2023-03-09T02:15:29;9.15;;;5.57;;
43706;SDS011;61348;53.392;-6.248;2023-03-09T02:17:56;11.52;;;5.55;;
43706;SDS011;61348;53.392;-6.248;2023-03-09T02:20:32;9.75;;;6.28;;
43706;SDS011;61348;53.392;-6.248;2023-03-09T02:25:40;10.82;;;5.38;;
43706;SDS011;61348;53.392;-6.248;2023-03-09T02:28:14;13.32;;;6.43;;
43706;SDS011;61348;53.392;-6.248;2023-03-09T02:30:42;10.15;;;4.90;;
43706;SDS011;61348;53.392;-6.248;2023-03-09T02:33:21;10.43;;;5.47;;
43706;SDS011;61348;53.392;-6.248;2023-03-09T02:35:55;10.23;;;6.80;;
43706;SDS011;61348;53.392;-6.248;2023-03-09T02:38:24;9.23;;;5.40;;
43706;SDS011;61348;53.392;-6.248;2023-03-09T02:40:52;10.07;;;5.85;;
43706;SDS011;61348;53.392;-6.248;2023-03-09T02:43:24;9.32;;;5.93;;
43706;SDS011;61348;53.392;-6.248;2023-03-09T02:45:56;10.40;;;6.35;;
43706;SDS011;61348;53.392;-6.248;2023-03-09T02:48:23;12.30;;;6.40;;
43706;SDS011;61348;53.392;-6.248;2023-03-09T02:50:50;10.82;;;6.63;;
43706;SDS011;61348;53.392;-6.248;2023-03-09T02:53:16;11.88;;;7.70;;
43706;SDS011;61348;53.392;-6.248;2023-03-09T02:55:43;11.43;;;6.45;;
43706;SDS011;61348;53.392;-6.248;2023-03-09T02:58:10;10.38;;;6.25;;
43706;SDS011;61348;53.392;-6.248;2023-03-09T03:00:37;14.80;;;5.90;;
43706;SDS011;61348;53.392;-6.248;2023-03-09T03:03:03;12.95;;;6.88;;
43706;SDS011;61348;53.392;-6.248;2023-03-09T03:05:30;14.82;;;6.47;;
43706;SDS011;61348;53.392;-6.248;2023-03-09T03:07:57;12.68;;;6.78;;
43706;SDS011;61348;53.392;-6.248;2023-03-09T03:10:24;10.55;;;6.45;;
43706;SDS011;61348;53.392;-6.248;2023-03-09T03:12:51;16.23;;;7.00;;
43706;SDS011;61348;53.392;-6.248;2023-03-09T03:15:18;9.00;;;5.97;;
43706;SDS011;61348;53.392;-6.248;2023-03-09T03:17:44;11.70;;;6.10;;
43706;SDS011;61348;53.392;-6.248;2023-03-09T03:20:11;16.33;;;7.50;;
43706;SDS011;61348;53.392;-6.248;2023-03-09T03:22:38;8.10;;;5.60;;
43706;SDS011;61348;53.392;-6.248;2023-03-09T03:25:06;10.80;;;6.43;;
43706;SDS011;61348;53.392;-6.248;2023-03-09T03:27:33;10.30;;;5.93;;
43706;SDS011;61348;53.392;-6.248;2023-03-09T03:30:00;12.45;;;6.18;;
43706;SDS011;61348;53.392;-6.248;2023-03-09T03:32:27;8.98;;;6.00;;
43706;SDS011;61348;53.392;-6.248;2023-03-09T03:34:53;9.00;;;5.70;;
43706;SDS011;61348;53.392;-6.248;2023-03-09T03:37:20;13.98;;;6.25;;
43706;SDS011;61348;53.392;-6.248;2023-03-09T03:39:48;14.40;;;5.15;;
43706;SDS011;61348;53.392;-6.248;2023-03-09T03:42:14;9.38;;;5.95;;
43706;SDS011;61348;53.392;-6.248;2023-03-09T03:44:41;10.73;;;6.85;;
43706;SDS011;61348;53.392;-6.248;2023-03-09T03:47:08;14.60;;;6.50;;
43706;SDS011;61348;53.392;-6.248;2023-03-09T03:49:34;10.60;;;6.32;;
43706;SDS011;61348;53.392;-6.248;2023-03-09T03:52:02;13.77;;;6.35;;
43706;SDS011;61348;53.392;-6.248;2023-03-09T03:54:29;11.07;;;6.43;;
43706;SDS011;61348;53.392;-6.248;2023-03-09T03:56:56;11.98;;;6.95;;
43706;SDS011;61348;53.392;-6.248;2023-03-09T03:59:23;11.10;;;6.47;;
43706;SDS011;61348;53.392;-6.248;2023-03-09T04:01:50;10.30;;;6.50;;
43706;SDS011;61348;53.392;-6.248;2023-03-09T04:04:17;16.13;;;8.07;;
43706;SDS011;61348;53.392;-6.248;2023-03-09T04:06:43;12.13;;;7.82;;
43706;SDS011;61348;53.392;-6.248;2023-03-09T04:09:10;10.13;;;6.30;;
43706;SDS011;61348;53.392;-6.248;2023-03-09T04:11:37;10.50;;;6.28;;
43706;SDS011;61348;53.392;-6.248;2023-03-09T04:14:04;12.05;;;7.85;;
43706;SDS011;61348;53.392;-6.248;2023-03-09T04:16:33;13.65;;;6.90;;
43706;SDS011;61348;53.392;-6.248;2023-03-09T04:19:00;11.70;;;7.13;;
43706;SDS011;61348;53.392;-6.248;2023-03-09T04:21:27;9.75;;;6.57;;
43706;SDS011;61348;53.392;-6.248;2023-03-09T04:23:53;13.40;;;7.57;;
43706;SDS011;61348;53.392;-6.248;2023-03-09T04:26:20;12.40;;;7.82;;
43706;SDS011;61348;53.392;-6.248;2023-03-09T04:28:46;15.45;;;7.88;;
43706;SDS011;61348;53.392;-6.248;2023-03-09T04:31:13;11.43;;;7.20;;
43706;SDS011;61348;53.392;-6.248;2023-03-09T04:33:40;15.30;;;7.57;;
43706;SDS011;61348;53.392;-6.248;2023-03-09T04:36:10;15.90;;;7.40;;
43706;SDS011;61348;53.392;-6.248;2023-03-09T04:38:37;14.82;;;7.35;;
43706;SDS011;61348;53.392;-6.248;2023-03-09T04:41:04;10.32;;;6.53;;
43706;SDS011;61348;53.392;-6.248;2023-03-09T04:43:32;12.98;;;7.00;;
43706;SDS011;61348;53.392;-6.248;2023-03-09T04:45:58;11.48;;;7.20;;
43706;SDS011;61348;53.392;-6.248;2023-03-09T04:48:25;11.20;;;7.25;;
43706;SDS011;61348;53.392;-6.248;2023-03-09T04:50:53;16.02;;;9.60;;
43706;SDS011;61348;53.392;-6.248;2023-03-09T04:53:20;15.55;;;7.18;;
43706;SDS011;61348;53.392;-6.248;2023-03-09T04:55:47;14.18;;;9.10;;
43706;SDS011;61348;53.392;-6.248;2023-03-09T04:58:13;13.02;;;7.95;;
43706;SDS011;61348;53.392;-6.248;2023-03-09T05:00:40;13.63;;;8.18;;
43706;SDS011;61348;53.392;-6.248;2023-03-09T05:03:07;12.63;;;8.57;;
43706;SDS011;61348;53.392;-6.248;2023-03-09T05:05:34;13.98;;;7.90;;
43706;SDS011;61348;53.392;-6.248;2023-03-09T05:08:00;11.07;;;7.60;;
43706;SDS011;61348;53.392;-6.248;2023-03-09T05:10:27;14.23;;;7.68;;
43706;SDS011;61348;53.392;-6.248;2023-03-09T05:12:53;17.25;;;8.65;;
43706;SDS011;61348;53.392;-6.248;2023-03-09T05:15:20;12.52;;;8.70;;
43706;SDS011;61348;53.392;-6.248;2023-03-09T05:17:47;20.65;;;8.23;;
43706;SDS011;61348;53.392;-6.248;2023-03-09T05:20:14;18.10;;;8.23;;
43706;SDS011;61348;53.392;-6.248;2023-03-09T05:22:40;19.38;;;8.75;;
43706;SDS011;61348;53.392;-6.248;2023-03-09T05:25:07;13.90;;;8.07;;
43706;SDS011;61348;53.392;-6.248;2023-03-09T05:27:34;15.15;;;9.15;;
43706;SDS011;61348;53.392;-6.248;2023-03-09T05:30:01;17.02;;;8.63;;
43706;SDS011;61348;53.392;-6.248;2023-03-09T05:32:29;15.85;;;9.40;;
43706;SDS011;61348;53.392;-6.248;2023-03-09T05:34:55;16.13;;;9.15;;
43706;SDS011;61348;53.392;-6.248;2023-03-09T05:37:23;16.85;;;10.05;;
43706;SDS011;61348;53.392;-6.248;2023-03-09T05:39:50;16.73;;;10.27;;
43706;SDS011;61348;53.392;-6.248;2023-03-09T05:42:17;16.45;;;9.00;;
43706;SDS011;61348;53.392;-6.248;2023-03-09T05:44:44;19.02;;;10.13;;
43706;SDS011;61348;53.392;-6.248;2023-03-09T05:47:11;14.57;;;8.63;;
43706;SDS011;61348;53.392;-6.248;2023-03-09T05:49:38;20.92;;;10.98;;
43706;SDS011;61348;53.392;-6.248;2023-03-09T05:52:05;18.80;;;11.38;;
43706;SDS011;61348;53.392;-6.248;2023-03-09T05:54:32;17.73;;;10.40;;
43706;SDS011;61348;53.392;-6.248;2023-03-09T05:57:00;20.85;;;10.15;;
43706;SDS011;61348;53.392;-6.248;2023-03-09T05:59:26;18.33;;;9.90;;
43706;SDS011;61348;53.392;-6.248;2023-03-09T06:01:53;19.55;;;10.57;;
43706;SDS011;61348;53.392;-6.248;2023-03-09T06:04:20;17.63;;;9.68;;
43706;SDS011;61348;53.392;-6.248;2023-03-09T06:06:47;19.20;;;9.63;;
43706;SDS011;61348;53.392;-6.248;2023-03-09T06:09:14;22.95;;;11.52;;
43706;SDS011;61348;53.392;-6.248;2023-03-09T06:11:41;15.95;;;9.38;;
43706;SDS011;61348;53.392;-6.248;2023-03-09T06:14:09;17.52;;;9.25;;
43706;SDS011;61348;53.392;-6.248;2023-03-09T06:16:36;19.80;;;9.35;;
43706;SDS011;61348;53.392;-6.248;2023-03-09T06:19:03;16.25;;;9.57;;
43706;SDS011;61348;53.392;-6.248;2023-03-09T06:21:30;21.15;;;8.93;;
43706;SDS011;61348;53.392;-6.248;2023-03-09T06:23:56;16.35;;;8.55;;
43706;SDS011;61348;53.392;-6.248;2023-03-09T06:26:24;21.65;;;10.05;;
43706;SDS011;61348;53.392;-6.248;2023-03-09T06:28:51;14.55;;;7.35;;
43706;SDS011;61348;53.392;-6.248;2023-03-09T06:31:18;15.40;;;8.88;;
43706;SDS011;61348;53.392;-6.248;2023-03-09T06:33:45;12.02;;;7.90;;
43706;SDS011;61348;53.392;-6.248;2023-03-09T06:36:14;15.00;;;7.68;;
43706;SDS011;61348;53.392;-6.248;2023-03-09T06:38:42;13.68;;;8.45;;
43706;SDS011;61348;53.392;-6.248;2023-03-09T06:41:11;14.07;;;8.77;;
43706;SDS011;61348;53.392;-6.248;2023-03-09T06:43:38;17.23;;;8.25;;
43706;SDS011;61348;53.392;-6.248;2023-03-09T06:46:09;12.50;;;7.85;;
43706;SDS011;61348;53.392;-6.248;2023-03-09T06:48:39;14.40;;;8.52;;
43706;SDS011;61348;53.392;-6.248;2023-03-09T06:51:06;14.73;;;8.05;;
43706;SDS011;61348;53.392;-6.248;2023-03-09T06:53:33;14.75;;;7.28;;
43706;SDS011;61348;53.392;-6.248;2023-03-09T06:55:59;14.80;;;8.35;;
43706;SDS011;61348;53.392;-6.248;2023-03-09T06:58:29;16.30;;;8.35;;
43706;SDS011;61348;53.392;-6.248;2023-03-09T07:00:57;13.52;;;7.22;;
43706;SDS011;61348;53.392;-6.248;2023-03-09T07:03:24;20.73;;;9.98;;
43706;SDS011;61348;53.392;-6.248;2023-03-09T07:05:51;15.05;;;8.82;;
43706;SDS011;61348;53.392;-6.248;2023-03-09T07:08:18;13.50;;;6.55;;
43706;SDS011;61348;53.392;-6.248;2023-03-09T07:10:45;13.10;;;6.43;;
43706;SDS011;61348;53.392;-6.248;2023-03-09T07:13:14;11.40;;;6.93;;
43706;SDS011;61348;53.392;-6.248;2023-03-09T07:15:41;10.43;;;6.60;;
43706;SDS011;61348;53.392;-6.248;2023-03-09T07:18:09;12.95;;;7.05;;
43706;SDS011;61348;53.392;-6.248;2023-03-09T07:20:39;12.98;;;6.30;;
43706;SDS011;61348;53.392;-6.248;2023-03-09T07:23:07;15.77;;;7.50;;
43706;SDS011;61348;53.392;-6.248;2023-03-09T07:25:36;11.73;;;7.03;;
43706;SDS011;61348;53.392;-6.248;2023-03-09T07:28:04;8.77;;;6.40;;
43706;SDS011;61348;53.392;-6.248;2023-03-09T07:30:36;16.17;;;5.82;;
43706;SDS011;61348;53.392;-6.248;2023-03-09T07:33:03;11.77;;;6.75;;
43706;SDS011;61348;53.392;-6.248;2023-03-09T07:35:30;16.35;;;6.78;;
43706;SDS011;61348;53.392;-6.248;2023-03-09T07:37:57;12.52;;;6.43;;
43706;SDS011;61348;53.392;-6.248;2023-03-09T07:40:24;9.90;;;6.30;;
43706;SDS011;61348;53.392;-6.248;2023-03-09T07:42:51;11.15;;;6.47;;
43706;SDS011;61348;53.392;-6.248;2023-03-09T07:45:21;8.07;;;5.50;;
43706;SDS011;61348;53.392;-6.248;2023-03-09T07:47:48;11.88;;;6.30;;
43706;SDS011;61348;53.392;-6.248;2023-03-09T07:50:16;8.60;;;5.40;;
43706;SDS011;61348;53.392;-6.248;2023-03-09T07:52:44;10.73;;;5.80;;
43706;SDS011;61348;53.392;-6.248;2023-03-09T07:55:11;9.18;;;5.30;;
43706;SDS011;61348;53.392;-6.248;2023-03-09T07:57:39;9.68;;;4.63;;
43706;SDS011;61348;53.392;-6.248;2023-03-09T08:00:08;10.43;;;5.00;;
43706;SDS011;61348;53.392;-6.248;2023-03-09T08:02:39;8.63;;;4.73;;
43706;SDS011;61348;53.392;-6.248;2023-03-09T08:05:07;11.55;;;5.13;;
43706;SDS011;61348;53.392;-6.248;2023-03-09T08:07:35;10.18;;;4.82;;
43706;SDS011;61348;53.392;-6.248;2023-03-09T08:10:03;6.65;;;4.53;;
43706;SDS011;61348;53.392;-6.248;2023-03-09T08:12:30;10.77;;;4.68;;
43706;SDS011;61348;53.392;-6.248;2023-03-09T08:14:56;10.20;;;4.95;;
43706;SDS011;61348;53.392;-6.248;2023-03-09T08:17:23;10.60;;;5.10;;
43706;SDS011;61348;53.392;-6.248;2023-03-09T08:19:50;9.60;;;3.85;;
43706;SDS011;61348;53.392;-6.248;2023-03-09T08:22:17;7.30;;;4.50;;
43706;SDS011;61348;53.392;-6.248;2023-03-09T08:24:44;9.32;;;4.72;;
43706;SDS011;61348;53.392;-6.248;2023-03-09T08:27:10;9.20;;;4.90;;
43706;SDS011;61348;53.392;-6.248;2023-03-09T08:29:37;6.60;;;4.65;;
43706;SDS011;61348;53.392;-6.248;2023-03-09T08:32:05;10.23;;;4.50;;
43706;SDS011;61348;53.392;-6.248;2023-03-09T08:34:33;9.27;;;4.97;;
43706;SDS011;61348;53.392;-6.248;2023-03-09T08:37:00;9.82;;;4.03;;
43706;SDS011;61348;53.392;-6.248;2023-03-09T08:39:27;4.10;;;2.65;;
43706;SDS011;61348;53.392;-6.248;2023-03-09T08:41:53;6.07;;;3.80;;
43706;SDS011;61348;53.392;-6.248;2023-03-09T08:44:20;6.50;;;3.40;;
43706;SDS011;61348;53.392;-6.248;2023-03-09T08:46:47;7.50;;;2.63;;
43706;SDS011;61348;53.392;-6.248;2023-03-09T08:49:14;6.05;;;3.35;;
43706;SDS011;61348;53.392;-6.248;2023-03-09T08:51:41;5.45;;;3.53;;
43706;SDS011;61348;53.392;-6.248;2023-03-09T08:54:08;10.02;;;3.78;;
43706;SDS011;61348;53.392;-6.248;2023-03-09T08:56:34;5.18;;;2.60;;
43706;SDS011;61348;53.392;-6.248;2023-03-09T08:59:01;4.78;;;3.33;;
43706;SDS011;61348;53.392;-6.248;2023-03-09T09:01:28;7.47;;;3.90;;
43706;SDS011;61348;53.392;-6.248;2023-03-09T09:03:54;9.57;;;3.85;;
43706;SDS011;61348;53.392;-6.248;2023-03-09T09:06:21;6.32;;;3.85;;
43706;SDS011;61348;53.392;-6.248;2023-03-09T09:08:48;5.03;;;3.30;;
43706;SDS011;61348;53.392;-6.248;2023-03-09T09:11:16;5.28;;;3.45;;
43706;SDS011;61348;53.392;-6.248;2023-03-09T09:13:43;7.03;;;2.67;;
43706;SDS011;61348;53.392;-6.248;2023-03-09T09:16:10;8.23;;;4.07;;
43706;SDS011;61348;53.392;-6.248;2023-03-09T09:18:38;9.20;;;3.80;;
43706;SDS011;61348;53.392;-6.248;2023-03-09T09:21:12;5.57;;;3.55;;
43706;SDS011;61348;53.392;-6.248;2023-03-09T09:23:42;7.75;;;3.97;;
43706;SDS011;61348;53.392;-6.248;2023-03-09T09:26:10;5.68;;;3.67;;
43706;SDS011;61348;53.392;-6.248;2023-03-09T09:28:42;9.43;;;2.97;;
43706;SDS011;61348;53.392;-6.248;2023-03-09T09:31:11;6.80;;;3.75;;
43706;SDS011;61348;53.392;-6.248;2023-03-09T09:33:42;7.30;;;3.28;;
43706;SDS011;61348;53.392;-6.248;2023-03-09T09:36:13;4.28;;;2.60;;
43706;SDS011;61348;53.392;-6.248;2023-03-09T09:38:43;5.55;;;2.58;;
43706;SDS011;61348;53.392;-6.248;2023-03-09T09:41:17;6.38;;;3.17;;
43706;SDS011;61348;53.392;-6.248;2023-03-09T09:43:49;4.20;;;2.97;;
43706;SDS011;61348;53.392;-6.248;2023-03-09T09:46:18;3.50;;;2.67;;
43706;SDS011;61348;53.392;-6.248;2023-03-09T09:48:48;6.43;;;2.80;;
43706;SDS011;61348;53.392;-6.248;2023-03-09T09:54:21;4.22;;;2.38;;
43706;SDS011;61348;53.392;-6.248;2023-03-09T09:56:50;3.80;;;2.70;;
43706;SDS011;61348;53.392;-6.248;2023-03-09T09:59:55;5.05;;;2.60;;
43706;SDS011;61348;53.392;-6.248;2023-03-09T10:02:37;3.25;;;2.00;;
43706;SDS011;61348;53.392;-6.248;2023-03-09T10:08:12;3.17;;;2.15;;
43706;SDS011;61348;53.392;-6.248;2023-03-09T10:11:04;8.05;;;2.55;;
43706;SDS011;61348;53.392;-6.248;2023-03-09T10:13:39;5.75;;;2.53;;
43706;SDS011;61348;53.392;-6.248;2023-03-09T10:16:16;6.03;;;2.35;;
43706;SDS011;61348;53.392;-6.248;2023-03-09T10:18:48;5.25;;;2.30;;
43706;SDS011;61348;53.392;-6.248;2023-03-09T10:21:26;5.60;;;2.28;;
43706;SDS011;61348;53.392;-6.248;2023-03-09T10:24:17;5.47;;;2.10;;
43706;SDS011;61348;53.392;-6.248;2023-03-09T10:26:56;2.13;;;1.60;;
43706;SDS011;61348;53.392;-6.248;2023-03-09T10:29:29;7.15;;;1.95;;
43706;SDS011;61348;53.392;-6.248;2023-03-09T10:32:07;9.40;;;1.80;;
43706;SDS011;61348;53.392;-6.248;2023-03-09T10:34:51;2.67;;;1.45;;
43706;SDS011;61348;53.392;-6.248;2023-03-09T10:37:25;7.35;;;2.78;;
43706;SDS011;61348;53.392;-6.248;2023-03-09T10:39:58;4.93;;;3.42;;
43706;SDS011;61348;53.392;-6.248;2023-03-09T10:42:32;7.53;;;3.05;;
43706;SDS011;61348;53.392;-6.248;2023-03-09T10:50:27;12.68;;;2.60;;
43706;SDS011;61348;53.392;-6.248;2023-03-09T10:52:56;8.43;;;3.33;;
43706;SDS011;61348;53.392;-6.248;2023-03-09T10:58:02;4.65;;;2.50;;
43706;SDS011;61348;53.392;-6.248;2023-03-09T11:03:39;5.03;;;2.90;;
43706;SDS011;61348;53.392;-6.248;2023-03-09T11:09:21;7.00;;;2.20;;
43706;SDS011;61348;53.392;-6.248;2023-03-09T11:11:47;3.17;;;1.52;;
43706;SDS011;61348;53.392;-6.248;2023-03-09T11:14:18;9.00;;;2.25;;
43706;SDS011;61348;53.392;-6.248;2023-03-09T11:16:56;5.78;;;1.98;;
43706;SDS011;61348;53.392;-6.248;2023-03-09T11:19:26;2.63;;;1.70;;
43706;SDS011;61348;53.392;-6.248;2023-03-09T11:24:25;4.35;;;1.77;;
43706;SDS011;61348;53.392;-6.248;2023-03-09T11:29:48;5.90;;;1.80;;
43706;SDS011;61348;53.392;-6.248;2023-03-09T11:32:22;5.63;;;2.30;;
43706;SDS011;61348;53.392;-6.248;2023-03-09T11:35:03;3.70;;;2.40;;
43706;SDS011;61348;53.392;-6.248;2023-03-09T11:40:24;4.18;;;1.67;;
43706;SDS011;61348;53.392;-6.248;2023-03-09T11:42:59;3.63;;;1.90;;
43706;SDS011;61348;53.392;-6.248;2023-03-09T11:45:44;8.73;;;2.30;;
43706;SDS011;61348;53.392;-6.248;2023-03-09T11:48:15;5.18;;;2.53;;
43706;SDS011;61348;53.392;-6.248;2023-03-09T11:51:11;8.00;;;2.70;;
43706;SDS011;61348;53.392;-6.248;2023-03-09T11:53:49;6.70;;;1.67;;
43706;SDS011;61348;53.392;-6.248;2023-03-09T11:56:37;5.78;;;2.15;;
43706;SDS011;61348;53.392;-6.248;2023-03-09T12:04:45;5.03;;;1.92;;
43706;SDS011;61348;53.392;-6.248;2023-03-09T12:07:19;9.77;;;2.22;;
43706;SDS011;61348;53.392;-6.248;2023-03-09T12:15:23;4.07;;;2.13;;
43706;SDS011;61348;53.392;-6.248;2023-03-09T12:17:56;6.78;;;2.05;;
43706;SDS011;61348;53.392;-6.248;2023-03-09T12:20:40;6.68;;;2.22;;
43706;SDS011;61348;53.392;-6.248;2023-03-09T12:26:03;4.97;;;2.33;;
43706;SDS011;61348;53.392;-6.248;2023-03-09T12:28:33;10.05;;;2.50;;
43706;SDS011;61348;53.392;-6.248;2023-03-09T12:31:00;9.85;;;3.47;;
43706;SDS011;61348;53.392;-6.248;2023-03-09T12:36:26;6.47;;;3.92;;
43706;SDS011;61348;53.392;-6.248;2023-03-09T12:41:57;10.43;;;4.97;;
43706;SDS011;61348;53.392;-6.248;2023-03-09T12:45:19;14.10;;;4.85;;
43706;SDS011;61348;53.392;-6.248;2023-03-09T12:49:54;10.95;;;2.95;;
43706;SDS011;61348;53.392;-6.248;2023-03-09T12:55:00;7.68;;;2.97;;
43706;SDS011;61348;53.392;-6.248;2023-03-09T12:57:29;8.07;;;4.68;;
43706;SDS011;61348;53.392;-6.248;2023-03-09T13:00:11;8.38;;;4.30;;
43706;SDS011;61348;53.392;-6.248;2023-03-09T13:03:12;12.00;;;3.90;;
43706;SDS011;61348;53.392;-6.248;2023-03-09T13:05:51;8.95;;;5.75;;
43706;SDS011;61348;53.392;-6.248;2023-03-09T13:08:25;17.33;;;5.72;;
43706;SDS011;61348;53.392;-6.248;2023-03-09T13:13:46;5.85;;;2.25;;
43706;SDS011;61348;53.392;-6.248;2023-03-09T13:16:59;12.25;;;3.17;;
43706;SDS011;61348;53.392;-6.248;2023-03-09T13:24:35;5.95;;;2.83;;
43706;SDS011;61348;53.392;-6.248;2023-03-09T13:29:47;9.77;;;3.13;;
43706;SDS011;61348;53.392;-6.248;2023-03-09T13:34:50;15.02;;;4.82;;
43706;SDS011;61348;53.392;-6.248;2023-03-09T13:37:20;14.32;;;4.68;;
43706;SDS011;61348;53.392;-6.248;2023-03-09T13:40:00;15.95;;;4.68;;
43706;SDS011;61348;53.392;-6.248;2023-03-09T13:42:33;10.50;;;4.82;;
43706;SDS011;61348;53.392;-6.248;2023-03-09T13:45:03;9.07;;;4.85;;
43706;SDS011;61348;53.392;-6.248;2023-03-09T13:47:31;12.43;;;4.60;;
43706;SDS011;61348;53.392;-6.248;2023-03-09T13:50:01;9.65;;;3.97;;
43706;SDS011;61348;53.392;-6.248;2023-03-09T13:52:28;7.50;;;3.63;;
43706;SDS011;61348;53.392;-6.248;2023-03-09T13:54:56;6.22;;;2.75;;
43706;SDS011;61348;53.392;-6.248;2023-03-09T13:57:34;11.77;;;4.82;;
43706;SDS011;61348;53.392;-6.248;2023-03-09T14:00:16;14.98;;;5.00;;
43706;SDS011;61348;53.392;-6.248;2023-03-09T14:02:45;4.18;;;3.17;;
43706;SDS011;61348;53.392;-6.248;2023-03-09T14:08:01;11.95;;;3.85;;
43706;SDS011;61348;53.392;-6.248;2023-03-09T14:13:03;11.77;;;4.45;;
43706;SDS011;61348;53.392;-6.248;2023-03-09T14:15:33;13.77;;;5.57;;
43706;SDS011;61348;53.392;-6.248;2023-03-09T14:18:00;9.07;;;4.55;;
43706;SDS011;61348;53.392;-6.248;2023-03-09T14:20:33;15.40;;;5.25;;
43706;SDS011;61348;53.392;-6.248;2023-03-09T14:26:06;9.48;;;5.80;;
43706;SDS011;61348;53.392;-6.248;2023-03-09T14:28:36;4.00;;;2.35;;
43706;SDS011;61348;53.392;-6.248;2023-03-09T14:31:28;12.50;;;3.55;;
43706;SDS011;61348;53.392;-6.248;2023-03-09T14:33:57;0.00;;;0.00;;
43706;SDS011;61348;53.392;-6.248;2023-03-09T14:36:26;0.00;;;0.00;;
43706;SDS011;61348;53.392;-6.248;2023-03-09T14:38:57;0.00;;;0.00;;
43706;SDS011;61348;53.392;-6.248;2023-03-09T14:41:26;0.00;;;0.00;;
43706;SDS011;61348;53.392;-6.248;2023-03-09T14:43:55;13.25;;;1.55;;
43706;SDS011;61348;53.392;-6.248;2023-03-09T14:46:24;0.00;;;0.00;;
43706;SDS011;61348;53.392;-6.248;2023-03-09T14:48:54;0.00;;;0.00;;
43706;SDS011;61348;53.392;-6.248;2023-03-09T14:51:30;0.03;;;0.03;;
43706;SDS011;61348;53.392;-6.248;2023-03-09T14:56:28;0.00;;;0.00;;
43706;SDS011;61348;53.392;-6.248;2023-03-09T14:58:57;0.00;;;0.00;;
43706;SDS011;61348;53.392;-6.248;2023-03-09T15:01:27;0.00;;;0.00;;
43706;SDS011;61348;53.392;-6.248;2023-03-09T15:03:55;0.00;;;0.00;;
43706;SDS011;61348;53.392;-6.248;2023-03-09T15:06:24;0.00;;;0.00;;
43706;SDS011;61348;53.392;-6.248;2023-03-09T15:08:51;0.00;;;0.00;;
43706;SDS011;61348;53.392;-6.248;2023-03-09T15:11:19;0.00;;;0.00;;
43706;SDS011;61348;53.392;-6.248;2023-03-09T15:13:47;0.00;;;0.00;;
43706;SDS011;61348;53.392;-6.248;2023-03-09T15:16:13;0.00;;;0.00;;
43706;SDS011;61348;53.392;-6.248;2023-03-09T15:18:41;0.00;;;0.00;;
43706;SDS011;61348;53.392;-6.248;2023-03-09T15:21:09;0.00;;;0.00;;
43706;SDS011;61348;53.392;-6.248;2023-03-09T15:23:36;0.03;;;0.03;;
43706;SDS011;61348;53.392;-6.248;2023-03-09T15:26:03;0.00;;;0.00;;
43706;SDS011;61348;53.392;-6.248;2023-03-09T15:28:31;0.63;;;0.63;;
43706;SDS011;61348;53.392;-6.248;2023-03-09T15:30:58;0.40;;;0.40;;
43706;SDS011;61348;53.392;-6.248;2023-03-09T15:33:27;0.00;;;0.00;;
43706;SDS011;61348;53.392;-6.248;2023-03-09T15:35:53;0.00;;;0.00;;
43706;SDS011;61348;53.392;-6.248;2023-03-09T15:38:21;0.00;;;0.00;;
43706;SDS011;61348;53.392;-6.248;2023-03-09T15:40:48;0.05;;;0.05;;
43706;SDS011;61348;53.392;-6.248;2023-03-09T15:43:14;0.00;;;0.00;;
43706;SDS011;61348;53.392;-6.248;2023-03-09T15:45:41;0.00;;;0.00;;
43706;SDS011;61348;53.392;-6.248;2023-03-09T15:48:09;2.10;;;2.00;;
43706;SDS011;61348;53.392;-6.248;2023-03-09T15:50:36;0.00;;;0.00;;
43706;SDS011;61348;53.392;-6.248;2023-03-09T15:53:06;0.00;;;0.00;;
43706;SDS011;61348;53.392;-6.248;2023-03-09T15:55:33;0.00;;;0.00;;
43706;SDS011;61348;53.392;-6.248;2023-03-09T15:58:00;0.00;;;0.00;;
43706;SDS011;61348;53.392;-6.248;2023-03-09T16:00:28;0.20;;;0.20;;
43706;SDS011;61348;53.392;-6.248;2023-03-09T16:02:59;0.00;;;0.00;;
43706;SDS011;61348;53.392;-6.248;2023-03-09T16:05:26;0.68;;;0.17;;
43706;SDS011;61348;53.392;-6.248;2023-03-09T16:07:54;0.10;;;0.10;;
43706;SDS011;61348;53.392;-6.248;2023-03-09T16:10:21;0.00;;;0.00;;
43706;SDS011;61348;53.392;-6.248;2023-03-09T16:12:48;0.00;;;0.00;;